Time;durP1;ratioP1;P1;durP2;ratioP2;P2;SDS_P1;SDS_P2;PMS_P1;PMS_P2;Temp;Humidity;BMP_temperature;BMP_pressure;BME280_temperature;BME280_humidity;BME280_pressure;Samples;Min_cycle;Max_cycle;Signal;HPM_P1;HPM_P2
2022/07/19 00:00:29;;;;;;;1.20;1.10;;;26.40;84.20;;;;;;5143864;27;20855;-65
2022/07/19 00:03:02;;;;;;;1.53;1.17;;;26.60;84.20;;;;;;5143295;27;20477;-65
2022/07/19 00:05:34;;;;;;;1.63;1.53;;;26.60;82.40;;;;;;5152027;27;20514;-65
2022/07/19 00:08:05;;;;;;;1.30;1.20;;;26.50;83.80;;;;;;5160980;27;20508;-66
2022/07/19 00:10:36;;;;;;;1.53;1.43;;;26.50;83.90;;;;;;5150021;27;20483;-65
2022/07/19 00:13:07;;;;;;;1.77;1.53;;;26.60;82.10;;;;;;5126839;27;20535;-65
2022/07/19 00:15:38;;;;;;;2.77;1.33;;;26.60;81.80;;;;;;5143197;27;20444;-66
2022/07/19 00:18:10;;;;;;;0.93;0.90;;;26.60;83.20;;;;;;5154556;27;20607;-65
2022/07/19 00:20:41;;;;;;;3.20;2.20;;;26.50;82.20;;;;;;5159386;27;20446;-65
2022/07/19 00:23:12;;;;;;;1.40;1.30;;;26.40;81.70;;;;;;5134108;27;20469;-65
2022/07/19 00:25:43;;;;;;;1.10;1.10;;;26.40;82.60;;;;;;5143018;27;20533;-66
2022/07/19 00:28:14;;;;;;;1.23;1.03;;;26.50;82.00;;;;;;5158730;27;20456;-65
2022/07/19 00:30:44;;;;;;;1.13;1.03;;;26.50;81.90;;;;;;5155205;27;20500;-65
2022/07/19 00:33:21;;;;;;;1.63;1.20;;;26.50;81.50;;;;;;5141841;27;20466;-65
2022/07/19 00:35:53;;;;;;;1.17;1.00;;;26.50;81.10;;;;;;5139552;27;20526;-66
2022/07/19 00:38:24;;;;;;;1.20;1.10;;;26.40;80.70;;;;;;5158910;27;20446;-65
2022/07/19 00:40:55;;;;;;;1.00;1.00;;;26.30;81.70;;;;;;5132042;27;20479;-65
2022/07/19 00:43:26;;;;;;;1.10;1.00;;;26.20;82.20;;;;;;5136022;27;20487;-66
2022/07/19 00:45:56;;;;;;;1.03;0.90;;;26.10;82.20;;;;;;5132352;27;20478;-65
2022/07/19 00:48:29;;;;;;;2.37;1.10;;;26.00;83.00;;;;;;5156560;27;20513;-65
2022/07/19 00:51:00;;;;;;;1.70;1.60;;;26.00;82.60;;;;;;5132876;27;21499;-66
2022/07/19 00:53:32;;;;;;;1.57;1.47;;;25.90;82.10;;;;;;5142445;27;20561;-65
2022/07/19 00:56:06;;;;;;;1.00;1.00;;;25.90;83.70;;;;;;5142622;27;20447;-65
2022/07/19 00:58:40;;;;;;;1.33;1.30;;;25.80;82.50;;;;;;5125920;27;20485;-65
2022/07/19 01:01:11;;;;;;;1.70;1.60;;;25.80;82.70;;;;;;5135172;27;20544;-66
2022/07/19 01:03:44;;;;;;;1.67;1.57;;;25.90;81.90;;;;;;5122919;27;20530;-65
2022/07/19 01:06:15;;;;;;;1.63;1.53;;;25.90;81.30;;;;;;5135638;27;20457;-65
2022/07/19 01:08:46;;;;;;;1.10;1.00;;;25.80;81.00;;;;;;5140446;27;20462;-66
2022/07/19 01:11:17;;;;;;;1.30;1.20;;;25.70;81.70;;;;;;5130852;27;20563;-64
2022/07/19 01:13:49;;;;;;;1.37;1.27;;;25.70;81.20;;;;;;5133980;27;20442;-67
2022/07/19 01:16:20;;;;;;;1.00;1.00;;;25.60;80.80;;;;;;5134709;27;20490;-63
2022/07/19 01:18:53;;;;;;;2.43;1.43;;;25.70;80.70;;;;;;5133668;27;20474;-65
2022/07/19 01:21:26;;;;;;;1.10;1.10;;;25.70;80.40;;;;;;5135083;27;21059;-64
2022/07/19 01:23:57;;;;;;;1.70;1.60;;;25.60;80.20;;;;;;5156105;27;20445;-64
2022/07/19 01:26:28;;;;;;;1.60;1.37;;;25.50;80.60;;;;;;5148202;27;20460;-64
2022/07/19 01:28:59;;;;;;;2.00;1.87;;;25.60;80.40;;;;;;5140184;27;20458;-63
2022/07/19 01:31:30;;;;;;;3.80;3.10;;;25.60;79.30;;;;;;5123118;27;20504;-64
2022/07/19 01:34:01;;;;;;;4.80;4.20;;;25.40;79.10;;;;;;5138920;27;20496;-63
2022/07/19 01:36:34;;;;;;;5.43;5.03;;;25.30;79.80;;;;;;5143844;27;20460;-64
2022/07/19 01:39:05;;;;;;;7.63;6.97;;;25.30;80.50;;;;;;5135103;27;20469;-64
2022/07/19 01:41:35;;;;;;;3.20;3.00;;;25.20;80.90;;;;;;5139505;27;20437;-65
2022/07/19 01:44:06;;;;;;;2.77;2.57;;;25.20;80.80;;;;;;5137317;27;20465;-64
2022/07/19 01:46:37;;;;;;;1.17;1.17;;;25.20;81.20;;;;;;5139429;27;20467;-63
2022/07/19 01:49:08;;;;;;;1.73;1.40;;;25.10;81.80;;;;;;5140134;27;20448;-64
2022/07/19 01:51:41;;;;;;;1.17;1.17;;;25.00;81.50;;;;;;5144335;27;20509;-64
2022/07/19 01:54:12;;;;;;;1.10;1.10;;;25.00;82.00;;;;;;5148977;27;20457;-64
2022/07/19 01:56:44;;;;;;;1.37;1.27;;;25.00;82.60;;;;;;5152894;27;20444;-64
2022/07/19 01:59:15;;;;;;;1.73;1.53;;;25.00;82.80;;;;;;5147661;27;20489;-64
2022/07/19 02:01:46;;;;;;;1.10;1.00;;;25.00;82.80;;;;;;5129665;27;20473;-65
2022/07/19 02:04:17;;;;;;;1.30;1.00;;;25.00;83.10;;;;;;5130995;27;20488;-64
2022/07/19 02:06:50;;;;;;;1.30;1.20;;;25.00;83.20;;;;;;5138693;27;20478;-63
2022/07/19 02:09:21;;;;;;;1.67;1.57;;;25.00;82.80;;;;;;5141562;27;20460;-64
2022/07/19 02:11:52;;;;;;;2.87;1.70;;;24.90;83.50;;;;;;5141001;27;20565;-63
2022/07/19 02:14:23;;;;;;;1.63;1.50;;;24.90;83.40;;;;;;5136775;27;20461;-63
2022/07/19 02:16:54;;;;;;;1.10;1.00;;;24.90;83.20;;;;;;5135526;27;20466;-63
2022/07/19 02:19:25;;;;;;;1.23;1.13;;;24.90;83.60;;;;;;5141583;27;20556;-63
2022/07/19 02:21:57;;;;;;;0.80;0.80;;;24.80;82.60;;;;;;5145999;27;20452;-62
2022/07/19 02:24:28;;;;;;;1.50;1.40;;;24.70;82.40;;;;;;5134809;27;20459;-64
2022/07/19 02:26:59;;;;;;;1.40;1.30;;;24.60;82.90;;;;;;5148778;27;20551;-62
2022/07/19 02:29:29;;;;;;;1.50;1.20;;;24.50;82.90;;;;;;5144462;27;20479;-63
2022/07/19 02:32:00;;;;;;;1.00;1.00;;;24.40;83.40;;;;;;5133645;27;20492;-63
2022/07/19 02:34:32;;;;;;;1.33;1.23;;;24.40;83.80;;;;;;5138943;27;20459;-63
2022/07/19 02:37:04;;;;;;;1.50;1.40;;;24.30;84.40;;;;;;5154949;27;20460;-64
2022/07/19 02:39:35;;;;;;;1.63;1.53;;;24.20;85.40;;;;;;5153679;27;20447;-67
2022/07/19 02:42:06;;;;;;;1.60;1.50;;;24.10;85.90;;;;;;5142927;27;20464;-66
2022/07/19 02:44:37;;;;;;;1.20;1.10;;;24.00;86.60;;;;;;5141838;27;20475;-65
2022/07/19 02:47:07;;;;;;;1.40;1.30;;;24.00;87.30;;;;;;5130200;27;20812;-66
2022/07/19 02:49:38;;;;;;;1.30;1.20;;;24.00;88.00;;;;;;5138786;27;20449;-66
2022/07/19 02:52:10;;;;;;;1.47;1.37;;;23.90;88.50;;;;;;5147740;27;20820;-66
2022/07/19 02:54:41;;;;;;;1.40;1.20;;;23.90;88.60;;;;;;5149273;27;20473;-68
2022/07/19 02:57:12;;;;;;;1.37;1.30;;;23.80;89.40;;;;;;5136067;27;20822;-67
2022/07/19 02:59:43;;;;;;;1.27;1.17;;;23.70;90.00;;;;;;5145762;27;20445;-65
2022/07/19 03:02:14;;;;;;;1.40;1.30;;;23.70;90.10;;;;;;5137089;27;20580;-65
2022/07/19 03:04:44;;;;;;;2.37;1.33;;;23.70;90.20;;;;;;5145980;27;20456;-65
2022/07/19 03:07:17;;;;;;;1.67;1.30;;;23.60;90.30;;;;;;5140776;27;20464;-66
2022/07/19 03:09:48;;;;;;;1.40;1.23;;;23.50;90.40;;;;;;5141846;27;20437;-64
2022/07/19 03:12:18;;;;;;;1.50;1.40;;;23.40;90.60;;;;;;5123316;27;20504;-66
2022/07/19 03:14:49;;;;;;;0.90;0.90;;;23.40;90.80;;;;;;5132577;27;20472;-65
2022/07/19 03:17:20;;;;;;;1.73;1.63;;;23.30;91.00;;;;;;5134233;27;21011;-64
2022/07/19 03:19:51;;;;;;;1.23;1.13;;;23.20;91.20;;;;;;5138342;27;20587;-64
2022/07/19 03:22:24;;;;;;;1.23;1.13;;;23.20;91.60;;;;;;5128151;27;20455;-63
2022/07/19 03:24:56;;;;;;;1.50;1.40;;;23.10;91.80;;;;;;5133089;27;20452;-64
2022/07/19 03:27:27;;;;;;;0.93;0.93;;;23.00;92.20;;;;;;5138897;27;20465;-64
2022/07/19 03:29:58;;;;;;;1.17;1.10;;;23.00;92.50;;;;;;5143572;27;20448;-64
2022/07/19 03:32:29;;;;;;;1.40;1.30;;;22.90;92.70;;;;;;5134413;27;20519;-64
2022/07/19 03:35:00;;;;;;;1.40;1.30;;;22.80;93.10;;;;;;5139543;27;20535;-64
2022/07/19 03:37:32;;;;;;;0.97;0.97;;;22.80;93.20;;;;;;5128386;27;20456;-63
2022/07/19 03:40:03;;;;;;;1.30;1.20;;;22.70;93.60;;;;;;5141626;27;20447;-63
2022/07/19 03:42:34;;;;;;;1.40;1.30;;;22.70;93.60;;;;;;5140415;27;20564;-63
2022/07/19 03:45:05;;;;;;;1.20;1.10;;;22.60;93.90;;;;;;5132444;27;20457;-63
2022/07/19 03:47:36;;;;;;;1.30;1.20;;;22.50;94.10;;;;;;5127842;27;20479;-64
2022/07/19 03:50:08;;;;;;;1.30;1.17;;;22.50;94.10;;;;;;5125835;27;20464;-63
2022/07/19 03:52:40;;;;;;;1.40;1.30;;;22.40;94.50;;;;;;5134753;27;20495;-64
2022/07/19 03:55:11;;;;;;;1.53;1.37;;;22.40;94.50;;;;;;5133074;27;20456;-63
2022/07/19 03:57:42;;;;;;;1.40;1.30;;;22.40;94.60;;;;;;5134141;27;20485;-63
2022/07/19 04:00:14;;;;;;;1.70;1.60;;;22.30;94.80;;;;;;5124604;27;20461;-63
2022/07/19 04:02:45;;;;;;;1.40;1.30;;;22.30;94.90;;;;;;5150583;27;20539;-64
2022/07/19 04:05:16;;;;;;;2.03;1.50;;;22.20;95.00;;;;;;5132237;27;20485;-63
2022/07/19 04:07:48;;;;;;;1.40;1.30;;;22.10;95.30;;;;;;5138391;27;20514;-63
2022/07/19 04:10:19;;;;;;;1.50;1.40;;;22.10;95.60;;;;;;5145392;27;21758;-64
2022/07/19 04:12:50;;;;;;;2.07;1.97;;;22.00;95.70;;;;;;5128558;27;20501;-63
2022/07/19 04:15:21;;;;;;;2.37;1.77;;;21.90;96.00;;;;;;5125040;27;20480;-65
2022/07/19 04:17:52;;;;;;;1.60;1.50;;;21.90;96.20;;;;;;5127389;27;20457;-63
2022/07/19 04:20:22;;;;;;;1.40;1.30;;;21.90;96.30;;;;;;5122773;27;20476;-63
2022/07/19 04:22:56;;;;;;;1.90;1.80;;;21.80;96.50;;;;;;5121967;27;20454;-62
2022/07/19 04:25:27;;;;;;;2.03;1.90;;;21.70;96.80;;;;;;5126161;27;20438;-62
2022/07/19 04:27:58;;;;;;;1.90;1.70;;;21.70;97.00;;;;;;5124252;27;20463;-62
2022/07/19 04:30:29;;;;;;;1.43;1.33;;;21.60;97.10;;;;;;5125755;27;20469;-62
2022/07/19 04:33:00;;;;;;;1.20;1.10;;;21.60;97.20;;;;;;5125561;27;20489;-63
2022/07/19 04:35:31;;;;;;;1.87;1.60;;;21.60;97.50;;;;;;5120748;27;20461;-63
2022/07/19 04:38:03;;;;;;;1.50;1.30;;;21.50;97.50;;;;;;5125639;27;20430;-63
2022/07/19 04:40:34;;;;;;;1.43;1.33;;;21.50;97.70;;;;;;5128423;27;20457;-63
2022/07/19 04:43:05;;;;;;;2.03;1.90;;;21.40;98.00;;;;;;5126318;27;20442;-64
2022/07/19 04:45:36;;;;;;;1.23;1.13;;;21.40;98.20;;;;;;5139152;27;20537;-64
2022/07/19 04:48:07;;;;;;;1.67;1.57;;;21.40;98.40;;;;;;5148851;27;20456;-64
2022/07/19 04:50:38;;;;;;;1.40;1.30;;;21.30;98.60;;;;;;5132881;27;20524;-64
2022/07/19 04:53:11;;;;;;;1.53;1.43;;;21.30;99.10;;;;;;5123773;27;20488;-63
2022/07/19 04:55:41;;;;;;;1.57;1.47;;;21.20;99.30;;;;;;5121268;27;20419;-64
2022/07/19 04:58:12;;;;;;;2.13;1.37;;;21.10;99.40;;;;;;5127434;27;20532;-63
2022/07/19 05:00:43;;;;;;;1.80;1.50;;;21.10;99.80;;;;;;5126540;27;20457;-63
2022/07/19 05:03:14;;;;;;;1.90;1.80;;;21.10;99.90;;;;;;5121160;27;20496;-64
2022/07/19 05:05:45;;;;;;;1.70;1.50;;;21.00;99.90;;;;;;5126762;27;20986;-64
2022/07/19 05:08:17;;;;;;;2.00;1.60;;;21.00;99.90;;;;;;5117760;27;20791;-64
2022/07/19 05:10:48;;;;;;;2.43;1.40;;;21.00;99.90;;;;;;5127975;27;20564;-64
2022/07/19 05:13:19;;;;;;;4.23;1.83;;;20.90;99.90;;;;;;5126838;27;20480;-63
2022/07/19 05:15:50;;;;;;;1.73;1.53;;;20.80;99.90;;;;;;5125081;27;20503;-63
2022/07/19 05:18:22;;;;;;;1.73;1.60;;;20.80;99.90;;;;;;5128076;27;20544;-64
2022/07/19 05:20:52;;;;;;;2.57;1.53;;;20.70;99.90;;;;;;5128736;27;20458;-64
2022/07/19 05:23:25;;;;;;;1.67;1.57;;;20.80;99.90;;;;;;5129445;27;20465;-64
2022/07/19 05:25:56;;;;;;;1.70;1.60;;;20.70;99.90;;;;;;5121241;27;20424;-63
2022/07/19 05:28:26;;;;;;;1.97;1.63;;;20.60;99.90;;;;;;5140603;27;20464;-63
2022/07/19 05:31:05;;;;;;;2.00;1.80;;;20.60;99.90;;;;;;5146886;27;20441;-63
2022/07/19 05:33:36;;;;;;;1.57;1.47;;;20.50;99.90;;;;;;5133599;27;20474;-63
2022/07/19 05:36:10;;;;;;;1.63;1.53;;;20.50;99.90;;;;;;5144103;27;20452;-63
2022/07/19 05:38:43;;;;;;;2.20;2.00;;;20.40;99.90;;;;;;5142995;27;20535;-63
2022/07/19 05:41:15;;;;;;;1.90;1.80;;;20.40;99.90;;;;;;5160505;27;20458;-63
2022/07/19 05:43:53;;;;;;;1.77;1.60;;;20.30;99.90;;;;;;5145892;27;20448;-63
2022/07/19 05:46:24;;;;;;;1.60;1.50;;;20.30;99.90;;;;;;5146436;27;20444;-63
2022/07/19 05:48:55;;;;;;;1.57;1.40;;;20.30;99.90;;;;;;5146580;27;20419;-63
2022/07/19 05:51:26;;;;;;;1.53;1.43;;;20.30;99.90;;;;;;5153783;27;20422;-63
2022/07/19 05:54:01;;;;;;;1.93;1.83;;;20.30;99.90;;;;;;5147674;27;20488;-63
2022/07/19 05:56:32;;;;;;;1.60;1.50;;;20.20;99.90;;;;;;5136913;27;20462;-63
2022/07/19 05:59:03;;;;;;;2.00;1.77;;;20.20;99.90;;;;;;5145789;27;20470;-63
2022/07/19 06:01:34;;;;;;;1.80;1.70;;;20.20;99.90;;;;;;5146241;27;20420;-64
2022/07/19 06:04:05;;;;;;;1.80;1.70;;;20.20;99.90;;;;;;5143337;27;20447;-63
2022/07/19 06:06:37;;;;;;;2.10;1.93;;;20.10;99.90;;;;;;5119998;27;20449;-63
2022/07/19 06:09:12;;;;;;;1.87;1.77;;;20.00;99.90;;;;;;5130689;27;20453;-63
2022/07/19 06:11:43;;;;;;;1.83;1.73;;;20.10;99.90;;;;;;5124730;27;20517;-63
2022/07/19 06:14:13;;;;;;;1.60;1.50;;;20.00;99.90;;;;;;5124711;27;20466;-63
2022/07/19 06:16:44;;;;;;;2.30;1.50;;;20.00;99.90;;;;;;5125317;27;20533;-63
2022/07/19 06:19:15;;;;;;;1.97;1.70;;;19.90;99.90;;;;;;5123385;27;20435;-63
2022/07/19 06:21:48;;;;;;;2.27;2.07;;;19.90;99.90;;;;;;5122149;27;20427;-63
2022/07/19 06:24:21;;;;;;;1.80;1.70;;;19.90;99.90;;;;;;5127614;27;20472;-63
2022/07/19 06:26:52;;;;;;;2.00;1.57;;;19.80;99.90;;;;;;5126423;27;20442;-63
2022/07/19 06:29:22;;;;;;;1.90;1.70;;;19.80;99.90;;;;;;5125790;27;20459;-63
2022/07/19 06:31:53;;;;;;;2.10;1.90;;;19.70;99.90;;;;;;5124383;27;20453;-63
2022/07/19 06:34:24;;;;;;;1.80;1.70;;;19.70;99.90;;;;;;5123782;27;20492;-63
2022/07/19 06:36:55;;;;;;;1.90;1.43;;;19.70;99.90;;;;;;5123841;27;21098;-64
2022/07/19 06:39:27;;;;;;;2.30;1.77;;;19.60;99.90;;;;;;5127888;27;20483;-63
2022/07/19 06:41:58;;;;;;;1.50;1.40;;;19.60;99.90;;;;;;5135990;27;20445;-63
2022/07/19 06:44:29;;;;;;;1.77;1.67;;;19.60;99.90;;;;;;5144706;27;20456;-63
2022/07/19 06:47:00;;;;;;;2.53;2.13;;;19.60;99.90;;;;;;5142911;27;20465;-63
2022/07/19 06:49:30;;;;;;;2.20;1.67;;;19.60;99.90;;;;;;5134527;27;20461;-63
2022/07/19 06:52:01;;;;;;;1.97;1.67;;;19.50;99.90;;;;;;5141575;27;20451;-63
2022/07/19 06:54:34;;;;;;;2.23;2.00;;;19.60;99.90;;;;;;5165242;27;20555;-63
2022/07/19 06:57:06;;;;;;;1.77;1.67;;;19.50;99.90;;;;;;5148446;27;21224;-63
2022/07/19 06:59:36;;;;;;;3.37;1.80;;;19.40;99.90;;;;;;5135235;27;20785;-63
2022/07/19 07:02:07;;;;;;;2.00;1.83;;;19.50;99.90;;;;;;5151131;27;20483;-63
2022/07/19 07:04:41;;;;;;;1.70;1.60;;;19.40;99.90;;;;;;5128850;27;20458;-63
2022/07/19 07:07:15;;;;;;;2.83;1.87;;;19.40;99.90;;;;;;5134486;27;20443;-63
2022/07/19 07:09:48;;;;;;;1.90;1.80;;;19.40;99.90;;;;;;5143646;27;20572;-63
2022/07/19 07:12:18;;;;;;;1.60;1.50;;;19.30;99.90;;;;;;5135933;27;20441;-64
2022/07/19 07:14:49;;;;;;;1.93;1.80;;;19.30;99.90;;;;;;5134873;27;20470;-64
2022/07/19 07:17:20;;;;;;;2.50;2.03;;;19.20;99.90;;;;;;5131877;27;20438;-64
2022/07/19 07:19:51;;;;;;;4.10;2.57;;;19.30;99.90;;;;;;5137141;27;20831;-64
2022/07/19 07:22:21;;;;;;;1.80;1.70;;;19.20;99.90;;;;;;5126390;27;20453;-64
2022/07/19 07:24:54;;;;;;;2.57;2.23;;;19.20;99.90;;;;;;5125595;27;20542;-64
2022/07/19 07:27:25;;;;;;;2.27;2.07;;;19.20;99.90;;;;;;5122750;27;20481;-64
2022/07/19 07:29:56;;;;;;;1.60;1.50;;;19.10;99.90;;;;;;5129311;27;20440;-64
2022/07/19 07:32:27;;;;;;;1.53;1.43;;;19.10;99.90;;;;;;5121117;27;20461;-64
2022/07/19 07:34:58;;;;;;;2.37;2.17;;;19.10;99.90;;;;;;5124811;27;20560;-65
2022/07/19 07:37:29;;;;;;;2.13;2.03;;;19.10;99.90;;;;;;5126148;27;20473;-64
2022/07/19 07:40:01;;;;;;;2.40;2.20;;;19.10;99.90;;;;;;5125440;27;20523;-64
2022/07/19 07:42:33;;;;;;;2.40;2.20;;;19.10;99.90;;;;;;5123447;27;22280;-64
2022/07/19 07:45:04;;;;;;;3.70;2.07;;;19.00;99.90;;;;;;5124840;27;20477;-64
2022/07/19 07:47:36;;;;;;;2.57;2.37;;;18.90;99.90;;;;;;5129684;27;20443;-64
2022/07/19 07:50:08;;;;;;;2.60;2.40;;;18.90;99.90;;;;;;5128566;27;20445;-64
2022/07/19 07:52:39;;;;;;;1.90;1.80;;;18.90;99.90;;;;;;5123221;27;20509;-64
2022/07/19 07:55:12;;;;;;;2.00;1.90;;;18.90;99.90;;;;;;5134847;27;20474;-64
2022/07/19 07:57:55;;;;;;;2.20;2.00;;;18.80;99.90;;;;;;5130245;27;20440;-64
2022/07/19 08:00:26;;;;;;;2.43;2.23;;;18.70;99.90;;;;;;5139800;27;20440;-64
2022/07/19 08:02:57;;;;;;;2.37;2.17;;;18.70;99.90;;;;;;5142072;27;20551;-64
2022/07/19 08:05:28;;;;;;;2.37;2.03;;;18.70;99.90;;;;;;5143774;27;20513;-65
2022/07/19 08:07:59;;;;;;;2.20;2.10;;;18.60;99.90;;;;;;5153697;27;20440;-64
2022/07/19 08:10:35;;;;;;;3.63;2.50;;;18.60;99.90;;;;;;5150441;27;20461;-64
2022/07/19 08:13:05;;;;;;;2.20;2.00;;;18.70;99.90;;;;;;5125949;27;20441;-64
2022/07/19 08:15:38;;;;;;;2.53;2.33;;;18.60;99.90;;;;;;5137099;27;20484;-64
2022/07/19 08:18:08;;;;;;;2.53;2.23;;;18.60;99.90;;;;;;5122531;27;20455;-64
2022/07/19 08:20:39;;;;;;;3.70;2.20;;;18.50;99.90;;;;;;5122861;27;20453;-64
2022/07/19 08:23:10;;;;;;;2.57;2.23;;;18.60;99.90;;;;;;5118486;27;20454;-64
2022/07/19 08:25:42;;;;;;;2.40;1.93;;;18.60;99.90;;;;;;5125684;27;20440;-64
2022/07/19 08:28:13;;;;;;;1.97;1.77;;;18.50;99.90;;;;;;5120001;27;20442;-64
2022/07/19 08:30:44;;;;;;;3.60;2.27;;;18.50;99.90;;;;;;5124699;27;20436;-63
2022/07/19 08:33:35;;;;;;;2.37;2.17;;;18.40;99.90;;;;;;5121716;27;21089;-64
2022/07/19 08:36:06;;;;;;;2.57;2.37;;;18.40;99.90;;;;;;5119501;27;20511;-64
2022/07/19 08:38:37;;;;;;;2.20;2.00;;;18.40;99.90;;;;;;5122288;27;20453;-64
2022/07/19 08:41:10;;;;;;;2.23;2.03;;;18.40;99.90;;;;;;5122511;27;20466;-64
2022/07/19 08:43:41;;;;;;;4.23;2.40;;;18.40;99.90;;;;;;5124521;27;20457;-64
2022/07/19 08:46:12;;;;;;;2.70;2.50;;;18.30;99.90;;;;;;5123439;27;21080;-64
2022/07/19 08:48:43;;;;;;;1.73;1.63;;;18.30;99.90;;;;;;5128789;27;20485;-64
2022/07/19 08:51:20;;;;;;;2.60;2.03;;;18.20;99.90;;;;;;5122982;27;20462;-64
2022/07/19 08:53:51;;;;;;;3.40;2.37;;;18.20;99.90;;;;;;5130980;27;20470;-64
2022/07/19 08:59:11;;;;;;;1.73;1.63;;;18.20;99.90;;;;;;5141720;27;20461;-64
2022/07/19 09:01:42;;;;;;;2.43;2.23;;;18.10;99.90;;;;;;5142169;27;20467;-65
2022/07/19 09:04:16;;;;;;;2.97;2.20;;;18.10;99.90;;;;;;5141866;27;20805;-64
2022/07/19 09:06:48;;;;;;;2.20;2.10;;;18.00;99.90;;;;;;5142207;27;20438;-64
2022/07/19 09:09:21;;;;;;;2.33;2.13;;;18.00;99.90;;;;;;5140220;27;20423;-64
2022/07/19 09:11:55;;;;;;;2.17;1.97;;;18.00;99.90;;;;;;5131921;27;20923;-64
2022/07/19 09:14:27;;;;;;;2.37;2.17;;;18.00;99.90;;;;;;5151015;27;20431;-63
2022/07/19 09:17:12;;;;;;;2.97;2.63;;;18.00;99.90;;;;;;5142158;27;20488;-64
2022/07/19 09:19:47;;;;;;;2.13;1.70;;;17.90;99.90;;;;;;5141076;27;20472;-64
2022/07/19 09:22:19;;;;;;;2.60;2.30;;;17.90;99.90;;;;;;5143987;27;20426;-64
2022/07/19 09:24:53;;;;;;;2.13;2.03;;;17.90;99.90;;;;;;5139772;27;20448;-65
2022/07/19 09:27:26;;;;;;;2.03;1.93;;;17.80;99.90;;;;;;5127349;27;20475;-64
2022/07/19 09:29:59;;;;;;;2.23;2.03;;;17.80;99.90;;;;;;5121777;27;20465;-64
2022/07/19 09:32:32;;;;;;;1.97;1.87;;;17.80;99.90;;;;;;5120954;27;20447;-64
2022/07/19 09:35:05;;;;;;;2.33;2.07;;;17.70;99.90;;;;;;5123711;27;20444;-64
2022/07/19 09:37:38;;;;;;;2.50;2.10;;;17.70;99.90;;;;;;5122766;27;20432;-65
2022/07/19 09:40:12;;;;;;;2.10;2.00;;;17.70;99.90;;;;;;5122872;27;21329;-64
2022/07/19 09:42:46;;;;;;;2.10;1.90;;;17.70;99.90;;;;;;5125963;27;20460;-63
2022/07/19 09:45:18;;;;;;;2.43;2.23;;;17.70;99.90;;;;;;5123492;27;20548;-64
2022/07/19 09:47:50;;;;;;;2.47;2.23;;;17.60;99.90;;;;;;5121681;27;20452;-63
2022/07/19 09:50:22;;;;;;;2.50;2.30;;;17.60;99.90;;;;;;5119182;27;20445;-64
2022/07/19 09:52:53;;;;;;;2.30;1.90;;;17.60;99.90;;;;;;5120629;27;20533;-64
2022/07/19 09:55:24;;;;;;;2.57;2.33;;;17.60;99.90;;;;;;5127795;27;20468;-64
2022/07/19 09:57:59;;;;;;;2.10;1.77;;;17.50;99.90;;;;;;5122178;27;20852;-64
2022/07/19 10:00:30;;;;;;;4.40;2.30;;;17.40;99.90;;;;;;5131286;27;20546;-64
2022/07/19 10:03:02;;;;;;;2.40;2.20;;;17.50;99.90;;;;;;5145064;27;20476;-64
2022/07/19 10:05:33;;;;;;;3.70;1.90;;;17.50;99.90;;;;;;5135021;27;20484;-64
2022/07/19 10:08:05;;;;;;;3.20;2.90;;;17.40;99.90;;;;;;5126681;27;20458;-64
2022/07/19 10:10:36;;;;;;;3.17;2.87;;;17.40;99.90;;;;;;5140302;27;20428;-64
2022/07/19 10:13:09;;;;;;;2.40;2.00;;;17.50;99.90;;;;;;5128118;27;20450;-64
2022/07/19 10:15:43;;;;;;;2.47;2.27;;;17.40;99.90;;;;;;5123706;27;20461;-64
2022/07/19 10:18:20;;;;;;;2.23;2.03;;;17.40;99.90;;;;;;5119407;27;20432;-64
2022/07/19 10:20:51;;;;;;;2.50;2.30;;;17.30;99.90;;;;;;5126635;27;20461;-64
2022/07/19 10:23:28;;;;;;;2.13;1.93;;;17.20;99.90;;;;;;5126310;27;20839;-64
2022/07/19 10:25:59;;;;;;;3.00;2.50;;;17.10;99.90;;;;;;5127433;27;20439;-64
2022/07/19 10:28:35;;;;;;;2.27;1.97;;;17.10;99.90;;;;;;5126789;27;20464;-64
2022/07/19 10:31:30;;;;;;;2.40;2.20;;;17.10;99.90;;;;;;5131402;27;20453;-64
2022/07/19 10:34:05;;;;;;;2.43;1.83;;;17.10;99.90;;;;;;5128309;27;21998;-64
2022/07/19 10:36:48;;;;;;;2.93;2.40;;;17.00;99.90;;;;;;5128382;27;20816;-64
2022/07/19 10:39:24;;;;;;;3.00;2.47;;;17.00;99.90;;;;;;5123973;27;20428;-64
2022/07/19 10:42:13;;;;;;;2.60;2.40;;;16.90;99.90;;;;;;5130017;27;20489;-64
2022/07/19 10:45:17;;;;;;;2.30;1.90;;;16.90;99.90;;;;;;5123679;27;20462;-64
2022/07/19 10:48:02;;;;;;;2.50;2.40;;;16.90;99.90;;;;;;5126173;27;20427;-63
2022/07/19 10:51:00;;;;;;;2.40;2.20;;;16.90;99.90;;;;;;5144307;27;20428;-63
2022/07/19 10:54:02;;;;;;;3.17;2.93;;;16.90;99.90;;;;;;5091992;28;20634;-63
2022/07/19 10:56:44;;;;;;;2.50;2.40;;;16.80;99.90;;;;;;5098793;28;20512;-63
2022/07/19 10:59:42;;;;;;;2.40;2.20;;;16.80;99.90;;;;;;5098085;28;20547;-63
2022/07/19 11:02:26;;;;;;;2.50;2.30;;;16.70;99.90;;;;;;5091858;28;20487;-64
2022/07/19 11:05:24;;;;;;;3.53;2.43;;;16.80;99.90;;;;;;5101345;28;20509;-63
2022/07/19 11:07:57;;;;;;;2.47;2.27;;;16.70;99.90;;;;;;5084655;28;20429;-63
2022/07/19 11:10:29;;;;;;;2.30;1.87;;;16.70;99.90;;;;;;5111021;28;20424;-63
2022/07/19 11:13:01;;;;;;;4.23;2.70;;;16.70;99.90;;;;;;5086542;28;20459;-63
2022/07/19 11:15:31;;;;;;;3.10;2.63;;;16.70;99.90;;;;;;5080869;28;20551;-63
2022/07/19 11:18:10;;;;;;;2.43;2.23;;;16.60;99.90;;;;;;5081743;28;20464;-63
2022/07/19 11:20:41;;;;;;;1.87;1.77;;;16.50;99.90;;;;;;5079972;28;20978;-63
2022/07/19 11:23:11;;;;;;;3.97;2.50;;;16.50;99.90;;;;;;5082358;28;20455;-63
2022/07/19 11:25:42;;;;;;;2.53;2.33;;;16.50;99.90;;;;;;5078829;28;20440;-62
2022/07/19 11:28:22;;;;;;;2.53;2.33;;;16.40;99.90;;;;;;5084610;27;20987;-62
2022/07/19 11:30:53;;;;;;;2.60;2.40;;;16.40;99.90;;;;;;5125586;27;20552;-63
2022/07/19 11:33:26;;;;;;;2.93;2.73;;;16.40;99.90;;;;;;5126168;27;20453;-63
2022/07/19 11:36:01;;;;;;;2.83;2.50;;;16.40;99.90;;;;;;5128402;27;20470;-63
2022/07/19 11:38:43;;;;;;;2.97;2.67;;;16.40;99.90;;;;;;5122377;27;20816;-63
2022/07/19 11:41:19;;;;;;;3.10;2.70;;;16.30;99.90;;;;;;5126852;27;20457;-62
2022/07/19 11:43:54;;;;;;;3.43;3.07;;;16.30;99.90;;;;;;5124070;27;20837;-62
2022/07/19 11:46:27;;;;;;;3.53;3.23;;;16.40;99.90;;;;;;5121843;27;20552;-62
2022/07/19 11:49:00;;;;;;;3.33;2.80;;;16.40;99.90;;;;;;5134828;27;20438;-63
2022/07/19 11:51:32;;;;;;;2.77;2.57;;;16.30;99.90;;;;;;5144271;27;20459;-62
2022/07/19 11:54:04;;;;;;;3.20;2.87;;;16.30;99.90;;;;;;5142690;27;20430;-63
2022/07/19 11:56:36;;;;;;;3.77;2.90;;;16.30;99.90;;;;;;5133090;27;20475;-62
2022/07/19 11:59:09;;;;;;;2.60;2.40;;;16.20;99.90;;;;;;5119226;27;20592;-62
2022/07/19 12:01:42;;;;;;;3.20;2.67;;;16.10;99.90;;;;;;5123047;27;20458;-63
2022/07/19 12:04:15;;;;;;;3.10;2.80;;;16.10;99.90;;;;;;5126938;27;20505;-63
2022/07/19 12:06:48;;;;;;;4.33;2.80;;;16.00;99.90;;;;;;5129215;27;20461;-63
2022/07/19 12:09:28;;;;;;;2.30;2.20;;;16.00;99.90;;;;;;5123152;27;20465;-63
2022/07/19 12:11:59;;;;;;;3.20;2.90;;;16.00;99.90;;;;;;5126098;27;20457;-63
2022/07/19 12:14:32;;;;;;;3.80;3.20;;;16.00;99.90;;;;;;5117063;27;20459;-63
2022/07/19 12:17:14;;;;;;;4.13;2.93;;;16.00;99.90;;;;;;5123654;27;20488;-64
2022/07/19 12:19:48;;;;;;;4.13;3.57;;;15.90;99.90;;;;;;5123013;27;20489;-64
2022/07/19 12:22:30;;;;;;;2.73;2.53;;;15.90;99.90;;;;;;5121551;27;20458;-64
2022/07/19 12:25:01;;;;;;;4.43;2.70;;;15.80;99.90;;;;;;5124261;27;20468;-64
2022/07/19 12:27:32;;;;;;;3.40;3.10;;;15.80;99.90;;;;;;5124853;27;20503;-64
2022/07/19 12:30:03;;;;;;;3.53;3.03;;;15.70;99.90;;;;;;5129766;27;20433;-64
2022/07/19 12:32:35;;;;;;;3.33;2.97;;;15.70;99.90;;;;;;5131209;27;20509;-64
2022/07/19 12:35:11;;;;;;;2.67;2.47;;;15.70;99.90;;;;;;5139504;27;20456;-63
2022/07/19 12:37:43;;;;;;;2.40;2.20;;;15.70;99.90;;;;;;5130213;27;20565;-63
2022/07/19 12:40:15;;;;;;;3.30;3.00;;;15.60;99.90;;;;;;5134239;27;20481;-64
2022/07/19 12:42:48;;;;;;;2.70;2.50;;;15.60;99.90;;;;;;5146073;27;20450;-63
2022/07/19 12:45:21;;;;;;;2.60;2.40;;;15.60;99.90;;;;;;5164683;27;20500;-63
2022/07/19 12:47:52;;;;;;;3.57;3.03;;;15.50;99.90;;;;;;5146796;27;20468;-63
2022/07/19 12:50:26;;;;;;;4.53;3.03;;;15.50;99.90;;;;;;5163919;27;20423;-63
2022/07/19 12:52:59;;;;;;;3.60;3.20;;;15.50;99.90;;;;;;5163470;27;21056;-63
2022/07/19 12:55:31;;;;;;;3.10;2.80;;;15.50;99.90;;;;;;5160901;27;20452;-63
2022/07/19 12:58:03;;;;;;;3.47;2.77;;;15.40;99.90;;;;;;5160925;27;20502;-64
2022/07/19 13:00:35;;;;;;;3.23;2.83;;;15.40;99.90;;;;;;5159366;27;20507;-63
2022/07/19 13:03:07;;;;;;;3.40;2.80;;;15.40;99.90;;;;;;5143211;27;20480;-63
2022/07/19 13:05:39;;;;;;;4.03;3.60;;;15.40;99.90;;;;;;5143511;27;20460;-63
2022/07/19 13:08:10;;;;;;;3.60;3.20;;;15.40;99.90;;;;;;5161864;27;20453;-63
2022/07/19 13:10:41;;;;;;;3.40;3.10;;;15.40;99.90;;;;;;5152312;27;20514;-63
2022/07/19 13:13:12;;;;;;;3.60;2.87;;;15.30;99.90;;;;;;5127987;27;20456;-63
2022/07/19 13:15:43;;;;;;;2.80;2.60;;;15.30;99.90;;;;;;5124826;27;20438;-63
2022/07/19 13:18:14;;;;;;;3.47;2.53;;;15.30;99.90;;;;;;5121469;27;20494;-63